createdAt,value
2019-04-16T00:02:00.060Z,11.43
2019-04-16T00:04:46.463Z,10.69
2019-04-16T00:07:28.950Z,10.22
2019-04-16T00:10:17.647Z,10.92
2019-04-16T00:13:04.027Z,10.50
2019-04-16T00:15:32.510Z,10.69
2019-04-16T00:18:00.981Z,11.16
2019-04-16T00:20:29.813Z,11.18
2019-04-16T00:23:02.688Z,10.91
2019-04-16T00:25:31.254Z,11.09
2019-04-16T00:28:00.776Z,11.20
2019-04-16T00:30:29.700Z,11.08
2019-04-16T00:32:58.189Z,11.20
2019-04-16T00:35:26.622Z,11.25
2019-04-16T00:37:55.227Z,11.04
2019-04-16T00:40:26.386Z,10.93
2019-04-16T00:42:53.850Z,11.02
2019-04-16T00:45:22.289Z,11.12
2019-04-16T00:47:51.389Z,10.93
2019-04-16T00:50:20.677Z,10.92
2019-04-16T00:52:49.175Z,10.82
2019-04-16T00:55:17.623Z,10.43
2019-04-16T00:57:48.613Z,10.79
2019-04-16T01:00:16.561Z,10.71
2019-04-16T01:02:46.935Z,10.63
2019-04-16T01:05:15.335Z,10.45
2019-04-16T01:07:43.764Z,10.79
2019-04-16T01:10:12.329Z,10.60
2019-04-16T01:12:40.782Z,10.61
2019-04-16T01:15:09.565Z,10.34
2019-04-16T01:17:38.001Z,10.35
2019-04-16T01:20:11.653Z,10.47
2019-04-16T01:22:37.882Z,10.21
2019-04-16T01:25:07.495Z,10.53
2019-04-16T01:27:37.838Z,10.27
2019-04-16T01:30:08.857Z,10.34
2019-04-16T01:32:42.424Z,10.48
2019-04-16T01:35:27.025Z,10.31
2019-04-16T01:38:03.188Z,10.33
2019-04-16T01:40:33.297Z,9.76
2019-04-16T01:43:01.998Z,9.56
2019-04-16T01:45:30.590Z,10.07
2019-04-16T01:47:59.129Z,10.29
2019-04-16T01:50:27.571Z,10.19
2019-04-16T01:52:56.024Z,10.14
2019-04-16T01:55:25.713Z,10.23
2019-04-16T01:57:54.891Z,10.05
2019-04-16T02:00:23.399Z,9.96
2019-04-16T02:02:51.891Z,9.63
2019-04-16T02:05:23.084Z,9.86
2019-04-16T02:07:50.651Z,9.94
2019-04-16T02:10:19.146Z,9.98
2019-04-16T02:12:47.621Z,9.90
2019-04-16T02:15:16.213Z,9.90
2019-04-16T02:17:44.641Z,9.86
2019-04-16T02:20:13.222Z,9.76
2019-04-16T02:22:42.340Z,9.78
2019-04-16T02:25:11.902Z,9.77
2019-04-16T02:27:40.338Z,9.64
2019-04-16T02:30:08.862Z,9.56
2019-04-16T02:32:37.295Z,9.92
2019-04-16T02:35:07.181Z,9.69
2019-04-16T02:37:37.287Z,9.75
2019-04-16T02:40:06.912Z,9.54
2019-04-16T02:42:35.425Z,9.66
2019-04-16T02:45:03.980Z,9.57
2019-04-16T02:47:32.463Z,9.59
2019-04-16T02:50:01.848Z,9.32
2019-04-16T02:52:37.979Z,9.41
2019-04-16T02:55:14.323Z,9.42
2019-04-16T02:58:02.585Z,9.37
2019-04-16T03:00:32.790Z,9.51
2019-04-16T03:03:02.868Z,9.48
2019-04-16T03:05:32.917Z,9.32
2019-04-16T03:08:04.511Z,9.34
2019-04-16T03:10:31.723Z,9.22
2019-04-16T03:13:00.215Z,9.44
2019-04-16T03:15:42.051Z,9.29
2019-04-16T03:18:14.896Z,9.33
2019-04-16T03:20:42.461Z,9.29
2019-04-16T03:23:10.920Z,9.25
2019-04-16T03:25:41.362Z,9.27
2019-04-16T03:28:10.330Z,8.93
2019-04-16T03:30:42.250Z,9.17
2019-04-16T03:33:13.442Z,9.16
2019-04-16T03:35:39.122Z,9.31
2019-04-16T03:38:07.755Z,9.24
2019-04-16T03:40:36.160Z,9.03
2019-04-16T03:43:04.861Z,9.14
2019-04-16T03:45:33.299Z,9.09
2019-04-16T03:48:01.722Z,9.25
2019-04-16T03:50:31.405Z,9.10
2019-04-16T03:53:00.357Z,8.95
2019-04-16T03:55:28.763Z,8.84
2019-04-16T03:57:57.181Z,8.85
2019-04-16T04:00:25.636Z,8.85
2019-04-16T04:02:55.179Z,8.95
2019-04-16T04:05:23.890Z,8.71
2019-04-16T04:07:55.114Z,8.81
2019-04-16T04:10:30.498Z,8.87
2019-04-16T04:12:52.716Z,8.70
2019-04-16T04:15:26.078Z,8.73
2019-04-16T04:17:51.312Z,8.81
2019-04-16T04:20:19.760Z,8.76
2019-04-16T04:22:48.276Z,8.63
2019-04-16T04:25:16.865Z,8.80
2019-04-16T04:27:46.682Z,8.68
2019-04-16T04:30:17.317Z,8.57
2019-04-16T04:32:47.503Z,8.61
2019-04-16T04:35:20.594Z,8.75
2019-04-16T04:37:46.074Z,8.44
2019-04-16T04:40:16.152Z,8.47
2019-04-16T04:42:44.665Z,8.59
2019-04-16T04:45:13.141Z,8.56
2019-04-16T04:47:41.661Z,8.64
2019-04-16T04:50:10.837Z,8.53
2019-04-16T04:52:39.273Z,8.52
2019-04-16T04:55:07.926Z,8.57
2019-04-16T04:57:36.368Z,8.54
2019-04-16T05:00:08.450Z,8.36
2019-04-16T05:02:37.335Z,8.51
2019-04-16T05:05:10.995Z,8.50
2019-04-16T05:07:39.387Z,8.48
2019-04-16T05:10:08.418Z,8.48
2019-04-16T05:12:37.021Z,8.51
2019-04-16T05:15:07.001Z,8.58
2019-04-16T05:17:38.264Z,8.48
2019-04-16T05:20:07.157Z,8.74
2019-04-16T05:22:35.561Z,8.78
2019-04-16T05:25:05.131Z,8.64
2019-04-16T05:27:33.563Z,8.81
2019-04-16T05:30:01.983Z,8.83
2019-04-16T05:32:33.990Z,8.75
2019-04-16T05:35:00.564Z,8.88
2019-04-16T05:37:28.992Z,8.96
2019-04-16T05:39:58.941Z,8.90
2019-04-16T05:42:27.596Z,8.82
2019-04-16T05:44:56.207Z,8.91
2019-04-16T05:47:24.637Z,9.03
2019-04-16T05:49:54.415Z,8.99
2019-04-16T05:52:23.245Z,8.93
2019-04-16T05:55:16.838Z,9.06
2019-04-16T05:57:43.485Z,8.97
2019-04-16T06:00:14.321Z,9.15
2019-04-16T06:02:43.823Z,9.14
2019-04-16T06:05:12.574Z,9.31
2019-04-16T06:07:41.008Z,9.31
2019-04-16T06:10:10.047Z,9.28
2019-04-16T06:12:42.807Z,9.26
2019-04-16T06:15:12.931Z,9.51
2019-04-16T06:17:48.533Z,9.47
2019-04-16T06:20:27.668Z,9.42
2019-04-16T06:23:14.353Z,9.53
2019-04-16T06:25:46.908Z,9.46
2019-04-16T06:28:16.984Z,9.45
2019-04-16T06:30:47.035Z,9.50
2019-04-16T06:33:19.743Z,9.67
2019-04-16T06:35:49.795Z,9.66
2019-04-16T06:38:25.729Z,9.56
2019-04-16T06:41:11.140Z,9.77
2019-04-16T06:43:41.243Z,9.80
2019-04-16T06:46:27.546Z,9.85
2019-04-16T06:49:14.355Z,9.97
2019-04-16T06:51:44.836Z,10.09
2019-04-16T06:54:32.835Z,10.28
2019-04-16T06:57:19.039Z,10.33
2019-04-16T06:59:52.134Z,10.44
2019-04-16T07:02:40.697Z,10.50
2019-04-16T07:05:09.385Z,10.31
2019-04-16T07:07:56.121Z,10.54
2019-04-16T07:10:28.675Z,10.55
2019-04-16T07:12:56.433Z,10.49
2019-04-16T07:15:28.253Z,10.46
2019-04-16T07:17:55.219Z,10.78
2019-04-16T07:20:23.927Z,10.78
2019-04-16T07:22:52.902Z,10.84
2019-04-16T07:25:22.415Z,10.90
2019-04-16T07:28:02.811Z,10.97
2019-04-16T07:30:40.388Z,11.01
2019-04-16T07:33:10.596Z,11.20
2019-04-16T07:35:55.927Z,11.20
2019-04-16T07:38:38.171Z,11.22
2019-04-16T07:41:24.379Z,11.29
2019-04-16T07:44:11.367Z,11.39
2019-04-16T07:46:47.915Z,11.55
2019-04-16T07:49:33.232Z,11.94
2019-04-16T07:52:19.409Z,12.03
2019-04-16T07:54:49.477Z,12.42
2019-04-16T07:57:17.922Z,12.49
2019-04-16T07:59:46.334Z,12.58
2019-04-16T08:02:17.663Z,12.79
2019-04-16T08:04:44.996Z,12.87
2019-04-16T08:07:13.450Z,12.91
2019-04-16T08:09:41.904Z,13.13
2019-04-16T08:12:22.065Z,13.11
2019-04-16T08:14:40.490Z,13.46
2019-04-16T08:17:08.941Z,13.58
2019-04-16T08:19:37.761Z,13.64
2019-04-16T08:22:06.609Z,13.68
2019-04-16T08:24:45.742Z,13.76
2019-04-16T08:27:18.370Z,14.11
2019-04-16T08:29:44.373Z,14.29
2019-04-16T08:32:16.041Z,14.50
2019-04-16T08:34:43.024Z,14.66
2019-04-16T08:37:11.448Z,14.99
2019-04-16T08:39:40.571Z,14.27
2019-04-16T08:42:09.182Z,14.76
2019-04-16T08:44:37.610Z,15.50
2019-04-16T08:47:11.569Z,15.39
2019-04-16T08:49:36.376Z,15.70
2019-04-16T08:52:09.865Z,15.73
2019-04-16T08:54:35.082Z,15.58
2019-04-16T08:57:03.536Z,15.92
2019-04-16T08:59:31.960Z,16.69
2019-04-16T09:02:01.375Z,16.71
2019-04-16T09:04:34.257Z,16.55
2019-04-16T09:07:11.483Z,17.05
2019-04-16T09:09:31.868Z,17.40
2019-04-16T09:12:08.910Z,17.55
2019-04-16T09:14:37.141Z,17.72
2019-04-16T09:17:22.491Z,17.83
2019-04-16T09:20:01.350Z,18.47
2019-04-16T09:22:28.946Z,18.46
2019-04-16T09:25:15.137Z,19.01
2019-04-16T09:27:45.232Z,18.73
2019-04-16T09:30:18.334Z,19.61
2019-04-16T09:33:00.321Z,20.31
2019-04-16T09:35:38.278Z,20.94
2019-04-16T09:38:09.323Z,21.22
2019-04-16T09:40:40.250Z,20.59
2019-04-16T09:43:16.703Z,22.26
2019-04-16T09:45:40.440Z,21.32
2019-04-16T09:48:08.881Z,21.78
2019-04-16T09:50:42.985Z,22.02
2019-04-16T09:53:07.448Z,22.74
2019-04-16T09:55:35.905Z,23.23
2019-04-16T09:58:07.026Z,24.40
2019-04-16T10:00:37.194Z,26.09
2019-04-16T10:03:19.771Z,26.07
2019-04-16T10:05:48.288Z,26.58
2019-04-16T10:08:16.741Z,26.74
2019-04-16T10:10:45.244Z,25.70
2019-04-16T10:13:13.700Z,27.61
2019-04-16T10:15:42.221Z,26.28
2019-04-16T10:18:10.739Z,29.43
2019-04-16T10:20:40.435Z,29.73
2019-04-16T10:23:10.609Z,27.21
2019-04-16T10:25:39.030Z,25.36
2019-04-16T10:28:09.112Z,25.28
2019-04-16T10:30:39.297Z,29.35
2019-04-16T10:33:07.767Z,29.77
2019-04-16T10:35:36.201Z,30.28
2019-04-16T10:38:06.279Z,28.26
2019-04-16T10:40:45.376Z,28.85
2019-04-16T10:43:15.432Z,27.86
2019-04-16T10:45:45.545Z,30.01
2019-04-16T10:48:18.030Z,29.07
2019-04-16T10:50:48.095Z,27.29
2019-04-16T10:53:18.233Z,28.64
2019-04-16T10:56:03.376Z,31.13
2019-04-16T10:58:49.632Z,31.71
2019-04-16T11:01:30.482Z,32.85
2019-04-16T11:04:15.720Z,32.19
2019-04-16T11:07:02.152Z,32.68
2019-04-16T11:09:30.726Z,32.03
2019-04-16T11:11:59.269Z,32.46
2019-04-16T11:14:27.719Z,33.03
2019-04-16T11:16:56.188Z,32.87
2019-04-16T11:19:24.656Z,33.61
2019-04-16T11:21:53.061Z,34.39
2019-04-16T11:24:21.621Z,33.89
2019-04-16T11:26:50.217Z,32.54
2019-04-16T11:29:18.613Z,33.59
2019-04-16T11:31:47.058Z,33.75
2019-04-16T11:34:15.623Z,28.44
2019-04-16T11:36:44.116Z,28.44
2019-04-16T11:39:12.696Z,26.47
2019-04-16T11:41:41.264Z,25.51
2019-04-16T11:44:15.558Z,23.73
2019-04-16T11:46:39.964Z,22.64
2019-04-16T11:49:08.357Z,21.84
2019-04-16T11:51:36.829Z,22.51
2019-04-16T11:54:05.254Z,22.64
2019-04-16T11:56:33.731Z,24.13
2019-04-16T11:59:02.129Z,25.33
2019-04-16T12:01:47.493Z,25.04
2019-04-16T12:04:20.346Z,25.11
2019-04-16T12:07:08.807Z,25.23
2019-04-16T12:09:41.861Z,26.60
2019-04-16T12:12:17.987Z,25.45
2019-04-16T12:14:50.762Z,23.06
2019-04-16T12:17:20.905Z,23.16
2019-04-16T12:19:51.001Z,23.59
2019-04-16T12:22:21.033Z,22.61
2019-04-16T12:24:56.727Z,22.43
2019-04-16T12:27:35.633Z,23.49
2019-04-16T12:30:22.998Z,25.33
2019-04-16T12:33:09.502Z,27.35
2019-04-16T12:35:56.545Z,22.06
2019-04-16T12:38:29.316Z,20.24
2019-04-16T12:41:02.565Z,20.16
2019-04-16T12:43:35.999Z,20.03
2019-04-16T12:46:23.028Z,20.05
2019-04-16T12:49:11.260Z,19.75
2019-04-16T12:51:44.086Z,20.78
2019-04-16T12:54:19.881Z,20.28
2019-04-16T12:57:06.246Z,20.58
2019-04-16T12:59:39.038Z,20.39
2019-04-16T13:02:13.750Z,20.16
2019-04-16T13:04:49.551Z,20.49
2019-04-16T13:07:22.327Z,20.15
2019-04-16T13:09:55.289Z,19.95
2019-04-16T13:12:28.067Z,19.44
2019-04-16T13:15:04.295Z,19.34
2019-04-16T13:17:51.586Z,19.36
2019-04-16T13:20:33.917Z,19.30
2019-04-16T13:23:13.296Z,18.97
2019-04-16T13:25:52.382Z,18.82
2019-04-16T13:28:24.739Z,18.71
2019-04-16T13:30:53.144Z,18.95
2019-04-16T13:33:21.592Z,18.84
2019-04-16T13:35:50.074Z,18.86
2019-04-16T13:38:20.175Z,18.82
2019-04-16T13:40:50.194Z,18.78
2019-04-16T13:43:20.482Z,18.58
2019-04-16T13:45:48.890Z,18.70
2019-04-16T13:48:21.412Z,18.75
2019-04-16T13:50:51.486Z,18.72
2019-04-16T13:53:30.760Z,18.70
2019-04-16T13:56:19.275Z,18.78
2019-04-16T13:58:56.040Z,18.79
2019-04-16T14:01:32.637Z,18.93
2019-04-16T14:04:01.045Z,18.66
2019-04-16T14:06:29.516Z,18.61
2019-04-16T14:08:57.992Z,18.71
2019-04-16T14:11:26.426Z,18.35
2019-04-16T14:13:54.872Z,18.43
2019-04-16T14:16:23.400Z,18.64
2019-04-16T14:18:51.862Z,18.66
2019-04-16T14:21:20.306Z,18.69
2019-04-16T14:23:48.755Z,18.63
2019-04-16T14:26:17.166Z,18.54
2019-04-16T14:28:52.378Z,18.55
2019-04-16T14:31:16.963Z,18.39
2019-04-16T14:33:50.539Z,18.53
2019-04-16T14:36:19.270Z,18.51
2019-04-16T14:38:49.567Z,18.73
2019-04-16T14:41:17.991Z,18.81
2019-04-16T14:43:48.089Z,18.98
2019-04-16T14:46:16.522Z,18.78
2019-04-16T14:48:46.405Z,18.80
2019-04-16T14:51:15.281Z,18.47
2019-04-16T14:54:01.899Z,18.52
2019-04-16T14:56:37.921Z,18.66
2019-04-16T14:59:11.186Z,18.62
2019-04-16T15:01:57.026Z,18.47
2019-04-16T15:04:36.031Z,18.70
2019-04-16T15:07:06.188Z,18.67
2019-04-16T15:09:51.364Z,18.66
2019-04-16T15:12:21.462Z,18.42
2019-04-16T15:15:03.411Z,18.46
2019-04-16T15:17:48.589Z,18.41
2019-04-16T15:20:24.901Z,18.34
2019-04-16T15:22:55.086Z,18.38
2019-04-16T15:25:25.319Z,18.29
2019-04-16T15:27:56.004Z,18.21
2019-04-16T15:30:28.705Z,18.18
2019-04-16T15:33:13.895Z,18.09
2019-04-16T15:35:47.750Z,18.01
2019-04-16T15:38:20.511Z,17.96
2019-04-16T15:40:50.639Z,17.89
2019-04-16T15:43:23.360Z,17.99
2019-04-16T15:46:25.532Z,17.97
2019-04-16T15:48:50.681Z,17.84
2019-04-16T15:51:24.022Z,17.73
2019-04-16T15:54:00.059Z,17.68
2019-04-16T15:56:32.990Z,17.66
2019-04-16T15:59:05.990Z,17.65
2019-04-16T16:01:48.300Z,17.68
2019-04-16T16:04:18.362Z,17.63
2019-04-16T16:06:52.162Z,17.59
2019-04-16T16:09:23.235Z,17.71
2019-04-16T16:11:59.512Z,17.77
2019-04-16T16:14:33.170Z,17.64
2019-04-16T16:16:58.113Z,17.70
2019-04-16T16:19:26.562Z,17.63
2019-04-16T16:21:54.988Z,17.53
2019-04-16T16:24:23.418Z,17.60
2019-04-16T16:26:51.835Z,17.59
2019-04-16T16:29:20.274Z,17.53
2019-04-16T16:31:48.820Z,17.47
2019-04-16T16:34:17.244Z,17.48
2019-04-16T16:36:45.691Z,17.50
2019-04-16T16:39:14.158Z,17.44
2019-04-16T16:41:46.251Z,17.42
2019-04-16T16:44:12.858Z,17.40
2019-04-16T16:46:56.531Z,17.32
2019-04-16T16:49:18.987Z,17.32
2019-04-16T16:52:05.420Z,17.34
2019-04-16T16:54:34.021Z,17.30
2019-04-16T16:57:07.758Z,17.27
2019-04-16T16:59:38.542Z,17.09
2019-04-16T17:02:23.579Z,17.03
2019-04-16T17:04:53.669Z,16.92
2019-04-16T17:07:22.136Z,16.86
2019-04-16T17:09:50.613Z,16.82
2019-04-16T17:12:19.408Z,16.79
2019-04-16T17:14:47.856Z,16.76
2019-04-16T17:17:16.342Z,16.71
2019-04-16T17:19:44.787Z,16.64
2019-04-16T17:22:14.645Z,16.58
2019-04-16T17:24:43.398Z,16.58
2019-04-16T17:27:11.849Z,16.52
2019-04-16T17:29:40.380Z,16.51
2019-04-16T17:32:08.889Z,16.49
2019-04-16T17:34:39.739Z,16.44
2019-04-16T17:37:07.526Z,16.42
2019-04-16T17:39:42.640Z,16.39
2019-04-16T17:42:31.251Z,16.36
2019-04-16T17:45:18.763Z,16.37
2019-04-16T17:48:00.788Z,16.28
2019-04-16T17:50:30.826Z,16.23
2019-04-16T17:53:06.779Z,16.17
2019-04-16T17:55:39.750Z,16.16
2019-04-16T17:58:09.872Z,16.10
2019-04-16T18:00:42.976Z,16.10
2019-04-16T18:03:21.957Z,16.09
2019-04-16T18:05:52.470Z,16.05
2019-04-16T18:08:22.761Z,15.97
2019-04-16T18:10:55.747Z,15.94
2019-04-16T18:13:42.143Z,15.91
2019-04-16T18:16:24.739Z,15.85
2019-04-16T18:18:54.883Z,15.90
2019-04-16T18:21:39.747Z,15.82
2019-04-16T18:24:15.786Z,15.78
2019-04-16T18:27:06.410Z,15.74
2019-04-16T18:29:36.494Z,15.78
2019-04-16T18:32:22.049Z,15.77
2019-04-16T18:35:08.240Z,15.78
2019-04-16T18:37:48.593Z,15.70
2019-04-16T18:40:26.621Z,15.60
2019-04-16T18:43:08.791Z,15.59
2019-04-16T18:45:55.866Z,15.68
2019-04-16T18:48:25.512Z,15.65
2019-04-16T18:50:53.976Z,15.56
2019-04-16T18:53:24.581Z,15.63
2019-04-16T18:58:22.326Z,15.52
2019-04-16T19:00:52.796Z,15.46
2019-04-16T19:03:21.318Z,15.51
2019-04-16T19:05:49.822Z,15.49
2019-04-16T19:08:18.279Z,15.44
2019-04-16T19:10:46.781Z,15.42
2019-04-16T19:13:15.212Z,15.34
2019-04-16T19:15:43.731Z,15.26
2019-04-16T19:18:19.471Z,15.33
2019-04-16T19:20:45.296Z,15.24
2019-04-16T19:23:13.819Z,15.16
2019-04-16T19:25:42.402Z,15.25
2019-04-16T19:28:10.905Z,15.10
2019-04-16T19:30:39.523Z,15.14
2019-04-16T19:33:07.993Z,15.03
2019-04-16T19:35:36.759Z,14.75
2019-04-16T19:38:06.701Z,14.88
2019-04-16T19:40:35.614Z,15.11
2019-04-16T19:43:04.361Z,14.87
2019-04-16T19:45:33.016Z,14.81
2019-04-16T19:48:02.368Z,14.87
2019-04-16T19:50:36.079Z,14.75
2019-04-16T19:53:01.296Z,14.80
2019-04-16T19:55:29.748Z,14.76
2019-04-16T19:57:58.180Z,14.96
2019-04-16T20:00:26.626Z,14.80
2019-04-16T20:02:55.118Z,14.71
2019-04-16T20:05:23.589Z,14.62
2019-04-16T20:07:52.103Z,14.56
2019-04-16T20:10:20.540Z,14.76
2019-04-16T20:12:49.071Z,14.89
2019-04-16T20:15:17.501Z,14.84
2019-04-16T20:17:45.958Z,14.67
2019-04-16T20:20:14.483Z,14.81
2019-04-16T20:22:43.028Z,14.88
2019-04-16T20:25:11.539Z,14.64
2019-04-16T20:27:40.843Z,14.71
2019-04-16T20:30:11.697Z,14.78
2019-04-16T20:32:42.264Z,14.78
2019-04-16T20:35:10.792Z,14.72
2019-04-16T20:37:39.229Z,14.53
2019-04-16T20:40:07.825Z,14.65
2019-04-16T20:42:36.277Z,14.64
2019-04-16T20:45:06.598Z,14.56
2019-04-16T20:47:38.558Z,14.38
2019-04-16T20:50:07.090Z,14.42
2019-04-16T20:52:35.563Z,14.44
2019-04-16T20:55:04.429Z,14.35
2019-04-16T20:57:32.883Z,14.36
2019-04-16T21:00:01.320Z,14.07
2019-04-16T21:02:31.413Z,14.34
2019-04-16T21:05:02.664Z,14.15
2019-04-16T21:07:31.107Z,14.34
2019-04-16T21:09:59.892Z,14.36
2019-04-16T21:12:29.784Z,14.19
2019-04-16T21:14:58.531Z,14.05
2019-04-16T21:17:27.450Z,14.17
2019-04-16T21:19:55.910Z,13.97
2019-04-16T21:22:24.913Z,13.73
2019-04-16T21:24:54.609Z,14.03
2019-04-16T21:27:24.171Z,14.25
2019-04-16T21:29:52.722Z,13.82
2019-04-16T21:32:25.504Z,13.75
2019-04-16T21:35:05.522Z,13.85
2019-04-16T21:37:49.826Z,13.51
2019-04-16T21:40:23.142Z,13.83
2019-04-16T21:42:48.489Z,14.03
2019-04-16T21:45:17.135Z,14.17
2019-04-16T21:47:45.831Z,13.95
2019-04-16T21:50:16.406Z,13.88
2019-04-16T21:52:45.503Z,13.65
2019-04-16T21:55:14.120Z,14.04
2019-04-16T21:57:42.776Z,14.07
2019-04-16T22:00:31.813Z,14.09
2019-04-16T22:03:00.375Z,14.26
2019-04-16T22:05:28.824Z,14.04
2019-04-16T22:07:58.356Z,13.75
2019-04-16T22:10:27.299Z,14.05
2019-04-16T22:12:55.911Z,13.35
2019-04-16T22:15:25.337Z,13.58
2019-04-16T22:17:54.624Z,13.90
2019-04-16T22:20:23.042Z,13.95
2019-04-16T22:22:51.566Z,13.78
2019-04-16T22:25:20.084Z,13.77
2019-04-16T22:27:48.519Z,13.99
2019-04-16T22:30:19.416Z,13.75
2019-04-16T22:32:47.307Z,13.33
2019-04-16T22:35:15.715Z,13.75
2019-04-16T22:37:44.166Z,13.80
2019-04-16T22:40:31.228Z,14.00
2019-04-16T22:43:08.551Z,13.96
2019-04-16T22:45:41.893Z,13.85
2019-04-16T22:48:10.407Z,13.88
2019-04-16T22:50:40.465Z,13.79
2019-04-16T22:53:08.871Z,13.85
2019-04-16T22:55:37.354Z,13.66
2019-04-16T22:58:05.798Z,13.88
2019-04-16T23:00:36.002Z,13.15
2019-04-16T23:03:04.785Z,13.28
2019-04-16T23:05:33.256Z,13.64
2019-04-16T23:08:01.675Z,13.73
2019-04-16T23:10:30.210Z,13.54
2019-04-16T23:13:00.411Z,13.48
2019-04-16T23:15:29.539Z,13.34
2019-04-16T23:17:59.190Z,13.60
2019-04-16T23:20:29.519Z,13.78
2019-04-16T23:22:57.927Z,13.84
2019-04-16T23:25:28.203Z,13.83
2019-04-16T23:27:57.372Z,13.62
2019-04-16T23:30:26.204Z,13.63
2019-04-16T23:32:58.992Z,13.50
2019-04-16T23:35:25.095Z,13.59
2019-04-16T23:37:58.096Z,13.63
2019-04-16T23:40:23.806Z,13.79
2019-04-16T23:42:59.837Z,13.52
2019-04-16T23:45:32.747Z,13.67
2019-04-16T23:48:03.175Z,13.68
2019-04-16T23:50:44.986Z,13.71
2019-04-16T23:53:19.323Z,13.74
2019-04-16T23:55:58.253Z,13.60
2019-04-16T23:58:30.731Z,13.64
